sensor_id;sensor_type;location;lat;lon;timestamp;temperature;humidity
17948;DHT22;9099;47.958;11.366;2023-02-17T00:01:11;9.60;98.70
17948;DHT22;9099;47.958;11.366;2023-02-17T00:03:38;9.60;98.80
17948;DHT22;9099;47.958;11.366;2023-02-17T00:06:06;9.60;98.80
17948;DHT22;9099;47.958;11.366;2023-02-17T00:08:34;9.60;98.80
17948;DHT22;9099;47.958;11.366;2023-02-17T00:11:01;9.60;98.70
17948;DHT22;9099;47.958;11.366;2023-02-17T00:13:29;9.60;98.80
17948;DHT22;9099;47.958;11.366;2023-02-17T00:15:56;9.60;98.70
17948;DHT22;9099;47.958;11.366;2023-02-17T00:18:23;9.60;98.70
17948;DHT22;9099;47.958;11.366;2023-02-17T00:20:50;9.50;98.60
17948;DHT22;9099;47.958;11.366;2023-02-17T00:23:17;9.60;98.80
17948;DHT22;9099;47.958;11.366;2023-02-17T00:25:45;9.60;98.70
17948;DHT22;9099;47.958;11.366;2023-02-17T00:28:12;9.50;98.70
17948;DHT22;9099;47.958;11.366;2023-02-17T00:30:39;9.50;98.80
17948;DHT22;9099;47.958;11.366;2023-02-17T00:33:05;9.50;98.90
17948;DHT22;9099;47.958;11.366;2023-02-17T00:35:32;9.50;98.60
17948;DHT22;9099;47.958;11.366;2023-02-17T00:37:59;9.50;98.80
17948;DHT22;9099;47.958;11.366;2023-02-17T00:40:26;9.60;98.50
17948;DHT22;9099;47.958;11.366;2023-02-17T00:42:54;9.60;98.10
17948;DHT22;9099;47.958;11.366;2023-02-17T00:45:21;9.70;98.40
17948;DHT22;9099;47.958;11.366;2023-02-17T00:47:48;9.70;98.00
17948;DHT22;9099;47.958;11.366;2023-02-17T00:50:15;9.80;98.40
17948;DHT22;9099;47.958;11.366;2023-02-17T00:52:41;9.70;98.20
17948;DHT22;9099;47.958;11.366;2023-02-17T00:55:08;9.80;98.20
17948;DHT22;9099;47.958;11.366;2023-02-17T00:57:35;9.80;98.50
17948;DHT22;9099;47.958;11.366;2023-02-17T01:00:05;9.80;98.30
17948;DHT22;9099;47.958;11.366;2023-02-17T01:02:32;9.80;97.90
17948;DHT22;9099;47.958;11.366;2023-02-17T01:04:59;9.90;98.00
17948;DHT22;9099;47.958;11.366;2023-02-17T01:07:26;9.90;97.80
17948;DHT22;9099;47.958;11.366;2023-02-17T01:09:52;10.00;97.90
17948;DHT22;9099;47.958;11.366;2023-02-17T01:12:19;10.00;97.70
17948;DHT22;9099;47.958;11.366;2023-02-17T01:14:46;10.10;97.80
17948;DHT22;9099;47.958;11.366;2023-02-17T01:17:15;10.10;97.60
17948;DHT22;9099;47.958;11.366;2023-02-17T01:19:41;10.10;97.50
17948;DHT22;9099;47.958;11.366;2023-02-17T01:22:09;10.20;97.50
17948;DHT22;9099;47.958;11.366;2023-02-17T01:24:35;10.20;97.30
17948;DHT22;9099;47.958;11.366;2023-02-17T01:27:02;10.20;97.40
17948;DHT22;9099;47.958;11.366;2023-02-17T01:29:29;10.20;97.60
17948;DHT22;9099;47.958;11.366;2023-02-17T01:31:56;10.30;97.50
17948;DHT22;9099;47.958;11.366;2023-02-17T01:34:24;10.30;97.50
17948;DHT22;9099;47.958;11.366;2023-02-17T01:36:51;10.30;97.40
17948;DHT22;9099;47.958;11.366;2023-02-17T01:39:18;10.20;97.20
17948;DHT22;9099;47.958;11.366;2023-02-17T01:41:45;10.20;97.50
17948;DHT22;9099;47.958;11.366;2023-02-17T01:44:16;10.20;97.30
17948;DHT22;9099;47.958;11.366;2023-02-17T01:46:44;10.30;97.40
17948;DHT22;9099;47.958;11.366;2023-02-17T01:49:22;10.30;97.30
17948;DHT22;9099;47.958;11.366;2023-02-17T01:51:54;10.30;97.20
17948;DHT22;9099;47.958;11.366;2023-02-17T01:54:25;10.30;97.10
17948;DHT22;9099;47.958;11.366;2023-02-17T01:56:55;10.30;97.20
17948;DHT22;9099;47.958;11.366;2023-02-17T01:59:23;10.30;97.20
17948;DHT22;9099;47.958;11.366;2023-02-17T02:01:54;10.30;97.30
17948;DHT22;9099;47.958;11.366;2023-02-17T02:04:25;10.30;97.40
17948;DHT22;9099;47.958;11.366;2023-02-17T02:06:55;10.30;97.20
17948;DHT22;9099;47.958;11.366;2023-02-17T02:09:26;10.30;97.40
17948;DHT22;9099;47.958;11.366;2023-02-17T02:11:55;10.40;97.40
17948;DHT22;9099;47.958;11.366;2023-02-17T02:14:24;10.40;97.40
17948;DHT22;9099;47.958;11.366;2023-02-17T02:16:55;10.40;97.40
17948;DHT22;9099;47.958;11.366;2023-02-17T02:19:49;10.40;97.50
17948;DHT22;9099;47.958;11.366;2023-02-17T02:22:38;10.40;97.50
17948;DHT22;9099;47.958;11.366;2023-02-17T02:25:16;10.40;97.50
17948;DHT22;9099;47.958;11.366;2023-02-17T02:27:57;10.40;97.60
17948;DHT22;9099;47.958;11.366;2023-02-17T02:30:51;10.40;97.70
17948;DHT22;9099;47.958;11.366;2023-02-17T02:33:30;10.40;97.70
17948;DHT22;9099;47.958;11.366;2023-02-17T02:36:02;10.40;97.60
17948;DHT22;9099;47.958;11.366;2023-02-17T02:38:36;10.40;97.80
17948;DHT22;9099;47.958;11.366;2023-02-17T02:41:07;10.40;97.60
17948;DHT22;9099;47.958;11.366;2023-02-17T02:43:35;10.50;97.80
17948;DHT22;9099;47.958;11.366;2023-02-17T02:46:03;10.50;97.90
17948;DHT22;9099;47.958;11.366;2023-02-17T02:48:31;10.50;97.80
17948;DHT22;9099;47.958;11.366;2023-02-17T02:54:09;10.50;97.80
17948;DHT22;9099;47.958;11.366;2023-02-17T02:59:40;10.50;97.80
17948;DHT22;9099;47.958;11.366;2023-02-17T03:02:16;10.50;97.80
17948;DHT22;9099;47.958;11.366;2023-02-17T03:04:51;10.60;97.90
17948;DHT22;9099;47.958;11.366;2023-02-17T03:07:23;10.50;97.90
17948;DHT22;9099;47.958;11.366;2023-02-17T03:09:54;10.50;97.90
17948;DHT22;9099;47.958;11.366;2023-02-17T03:12:22;10.60;97.80
17948;DHT22;9099;47.958;11.366;2023-02-17T03:14:53;10.60;98.00
17948;DHT22;9099;47.958;11.366;2023-02-17T03:17:21;10.60;98.00
17948;DHT22;9099;47.958;11.366;2023-02-17T03:19:49;10.50;97.90
17948;DHT22;9099;47.958;11.366;2023-02-17T03:22:20;10.60;97.90
17948;DHT22;9099;47.958;11.366;2023-02-17T03:24:48;10.50;98.00
17948;DHT22;9099;47.958;11.366;2023-02-17T03:27:15;10.60;97.80
17948;DHT22;9099;47.958;11.366;2023-02-17T03:29:41;10.50;97.80
17948;DHT22;9099;47.958;11.366;2023-02-17T03:32:08;10.60;98.00
17948;DHT22;9099;47.958;11.366;2023-02-17T03:34:35;10.60;98.10
17948;DHT22;9099;47.958;11.366;2023-02-17T03:37:03;10.50;98.00
17948;DHT22;9099;47.958;11.366;2023-02-17T03:39:30;10.60;98.10
17948;DHT22;9099;47.958;11.366;2023-02-17T03:41:57;10.50;98.10
17948;DHT22;9099;47.958;11.366;2023-02-17T03:44:24;10.60;98.40
17948;DHT22;9099;47.958;11.366;2023-02-17T03:46:51;10.60;98.00
17948;DHT22;9099;47.958;11.366;2023-02-17T03:49:17;10.60;98.00
17948;DHT22;9099;47.958;11.366;2023-02-17T03:51:44;10.60;98.00
17948;DHT22;9099;47.958;11.366;2023-02-17T03:54:12;10.60;98.00
17948;DHT22;9099;47.958;11.366;2023-02-17T03:56:39;10.70;98.00
17948;DHT22;9099;47.958;11.366;2023-02-17T03:59:06;10.70;98.20
17948;DHT22;9099;47.958;11.366;2023-02-17T04:01:33;10.70;97.90
17948;DHT22;9099;47.958;11.366;2023-02-17T04:04:00;10.70;97.90
17948;DHT22;9099;47.958;11.366;2023-02-17T04:06:26;10.70;98.00
17948;DHT22;9099;47.958;11.366;2023-02-17T04:08:53;10.70;97.90
17948;DHT22;9099;47.958;11.366;2023-02-17T04:11:22;10.80;97.80
17948;DHT22;9099;47.958;11.366;2023-02-17T04:13:48;10.80;97.80
17948;DHT22;9099;47.958;11.366;2023-02-17T04:16:15;10.80;97.70
17948;DHT22;9099;47.958;11.366;2023-02-17T04:18:42;10.80;97.80
17948;DHT22;9099;47.958;11.366;2023-02-17T04:21:09;10.80;97.80
17948;DHT22;9099;47.958;11.366;2023-02-17T04:23:37;10.80;97.80
17948;DHT22;9099;47.958;11.366;2023-02-17T04:26:05;10.80;98.10
17948;DHT22;9099;47.958;11.366;2023-02-17T04:28:33;10.80;98.20
17948;DHT22;9099;47.958;11.366;2023-02-17T04:31:00;10.80;98.40
17948;DHT22;9099;47.958;11.366;2023-02-17T04:33:27;10.80;98.20
17948;DHT22;9099;47.958;11.366;2023-02-17T04:35:54;10.80;98.00
17948;DHT22;9099;47.958;11.366;2023-02-17T04:38:25;10.80;98.10
17948;DHT22;9099;47.958;11.366;2023-02-17T04:40:53;10.80;98.10
17948;DHT22;9099;47.958;11.366;2023-02-17T04:43:20;10.80;98.10
17948;DHT22;9099;47.958;11.366;2023-02-17T04:45:48;10.80;98.10
17948;DHT22;9099;47.958;11.366;2023-02-17T04:48:15;10.80;98.00
17948;DHT22;9099;47.958;11.366;2023-02-17T04:50:42;10.80;98.00
17948;DHT22;9099;47.958;11.366;2023-02-17T04:53:09;10.80;98.20
17948;DHT22;9099;47.958;11.366;2023-02-17T04:55:36;10.80;98.00
17948;DHT22;9099;47.958;11.366;2023-02-17T04:58:03;10.80;97.90
17948;DHT22;9099;47.958;11.366;2023-02-17T05:00:30;10.80;98.10
17948;DHT22;9099;47.958;11.366;2023-02-17T05:02:59;10.80;98.00
17948;DHT22;9099;47.958;11.366;2023-02-17T05:05:26;10.80;98.00
17948;DHT22;9099;47.958;11.366;2023-02-17T05:07:52;10.80;98.10
17948;DHT22;9099;47.958;11.366;2023-02-17T05:10:19;10.80;98.10
17948;DHT22;9099;47.958;11.366;2023-02-17T05:12:46;10.80;98.10
17948;DHT22;9099;47.958;11.366;2023-02-17T05:15:13;10.80;98.10
17948;DHT22;9099;47.958;11.366;2023-02-17T05:17:40;10.80;98.00
17948;DHT22;9099;47.958;11.366;2023-02-17T05:20:10;10.80;98.10
17948;DHT22;9099;47.958;11.366;2023-02-17T05:22:37;10.80;98.20
17948;DHT22;9099;47.958;11.366;2023-02-17T05:25:04;10.70;98.10
17948;DHT22;9099;47.958;11.366;2023-02-17T05:27:31;10.80;98.20
17948;DHT22;9099;47.958;11.366;2023-02-17T05:29:58;10.80;98.20
17948;DHT22;9099;47.958;11.366;2023-02-17T05:32:25;10.80;98.10
17948;DHT22;9099;47.958;11.366;2023-02-17T05:34:52;10.80;98.20
17948;DHT22;9099;47.958;11.366;2023-02-17T05:37:20;10.80;98.10
17948;DHT22;9099;47.958;11.366;2023-02-17T05:39:47;10.80;98.30
17948;DHT22;9099;47.958;11.366;2023-02-17T05:42:14;10.80;98.20
17948;DHT22;9099;47.958;11.366;2023-02-17T05:44:40;10.80;98.30
17948;DHT22;9099;47.958;11.366;2023-02-17T05:47:07;10.80;98.20
17948;DHT22;9099;47.958;11.366;2023-02-17T05:49:34;10.80;98.30
17948;DHT22;9099;47.958;11.366;2023-02-17T05:52:01;10.80;98.20
17948;DHT22;9099;47.958;11.366;2023-02-17T05:54:29;10.80;98.30
17948;DHT22;9099;47.958;11.366;2023-02-17T05:56:56;10.80;98.30
17948;DHT22;9099;47.958;11.366;2023-02-17T05:59:23;10.80;98.40
17948;DHT22;9099;47.958;11.366;2023-02-17T06:01:50;10.90;98.30
17948;DHT22;9099;47.958;11.366;2023-02-17T06:04:17;10.80;98.40
17948;DHT22;9099;47.958;11.366;2023-02-17T06:06:44;10.90;98.40
17948;DHT22;9099;47.958;11.366;2023-02-17T06:09:11;10.90;98.40
17948;DHT22;9099;47.958;11.366;2023-02-17T06:11:39;10.90;98.60
17948;DHT22;9099;47.958;11.366;2023-02-17T06:14:06;11.00;98.70
17948;DHT22;9099;47.958;11.366;2023-02-17T06:16:33;11.00;98.70
17948;DHT22;9099;47.958;11.366;2023-02-17T06:18:59;11.00;99.10
17948;DHT22;9099;47.958;11.366;2023-02-17T06:21:29;11.00;99.10
17948;DHT22;9099;47.958;11.366;2023-02-17T06:23:56;11.00;99.30
17948;DHT22;9099;47.958;11.366;2023-02-17T06:26:23;11.10;99.50
17948;DHT22;9099;47.958;11.366;2023-02-17T06:28:51;11.10;99.70
17948;DHT22;9099;47.958;11.366;2023-02-17T06:31:18;11.10;99.90
17948;DHT22;9099;47.958;11.366;2023-02-17T06:33:45;11.10;99.90
17948;DHT22;9099;47.958;11.366;2023-02-17T06:36:12;11.10;99.90
17948;DHT22;9099;47.958;11.366;2023-02-17T06:38:39;11.10;99.90
17948;DHT22;9099;47.958;11.366;2023-02-17T06:41:06;11.10;99.90
17948;DHT22;9099;47.958;11.366;2023-02-17T06:43:33;11.10;99.90
17948;DHT22;9099;47.958;11.366;2023-02-17T06:46:01;11.20;99.90
17948;DHT22;9099;47.958;11.366;2023-02-17T06:48:28;11.10;99.90
17948;DHT22;9099;47.958;11.366;2023-02-17T06:50:57;11.10;99.90
17948;DHT22;9099;47.958;11.366;2023-02-17T06:53:24;11.20;99.90
17948;DHT22;9099;47.958;11.366;2023-02-17T06:55:51;11.10;99.90
17948;DHT22;9099;47.958;11.366;2023-02-17T06:58:18;11.20;99.90
17948;DHT22;9099;47.958;11.366;2023-02-17T07:00:45;11.20;99.90
17948;DHT22;9099;47.958;11.366;2023-02-17T07:03:13;11.20;99.90
17948;DHT22;9099;47.958;11.366;2023-02-17T07:05:39;11.20;99.90
17948;DHT22;9099;47.958;11.366;2023-02-17T07:08:06;11.30;99.90
17948;DHT22;9099;47.958;11.366;2023-02-17T07:10:33;11.30;99.90
17948;DHT22;9099;47.958;11.366;2023-02-17T07:13:00;11.30;99.90
17948;DHT22;9099;47.958;11.366;2023-02-17T07:15:27;11.30;99.90
17948;DHT22;9099;47.958;11.366;2023-02-17T07:17:54;11.30;99.90
17948;DHT22;9099;47.958;11.366;2023-02-17T07:20:22;11.30;99.90
17948;DHT22;9099;47.958;11.366;2023-02-17T07:22:49;11.40;99.90
17948;DHT22;9099;47.958;11.366;2023-02-17T07:25:16;11.40;99.90
17948;DHT22;9099;47.958;11.366;2023-02-17T07:27:42;11.40;99.90
17948;DHT22;9099;47.958;11.366;2023-02-17T07:30:10;11.50;99.90
17948;DHT22;9099;47.958;11.366;2023-02-17T07:32:37;11.60;99.90
17948;DHT22;9099;47.958;11.366;2023-02-17T07:35:04;11.70;99.90
17948;DHT22;9099;47.958;11.366;2023-02-17T07:37:32;11.90;99.90
17948;DHT22;9099;47.958;11.366;2023-02-17T07:39:59;12.10;99.90
17948;DHT22;9099;47.958;11.366;2023-02-17T07:42:26;12.60;99.90
17948;DHT22;9099;47.958;11.366;2023-02-17T07:44:53;12.90;99.90
17948;DHT22;9099;47.958;11.366;2023-02-17T07:47:20;12.90;99.90
17948;DHT22;9099;47.958;11.366;2023-02-17T07:49:47;12.80;99.90
17948;DHT22;9099;47.958;11.366;2023-02-17T07:52:15;12.80;99.90
17948;DHT22;9099;47.958;11.366;2023-02-17T07:54:44;12.70;99.90
17948;DHT22;9099;47.958;11.366;2023-02-17T07:57:11;12.70;99.90
17948;DHT22;9099;47.958;11.366;2023-02-17T07:59:37;12.50;99.90
17948;DHT22;9099;47.958;11.366;2023-02-17T08:02:04;12.50;99.90
17948;DHT22;9099;47.958;11.366;2023-02-17T08:04:31;12.50;99.90
17948;DHT22;9099;47.958;11.366;2023-02-17T08:06:58;12.40;99.90
17948;DHT22;9099;47.958;11.366;2023-02-17T08:09:25;12.40;99.90
17948;DHT22;9099;47.958;11.366;2023-02-17T08:12:14;12.30;99.90
17948;DHT22;9099;47.958;11.366;2023-02-17T08:14:59;12.30;99.90
17948;DHT22;9099;47.958;11.366;2023-02-17T08:17:26;12.30;99.90
17948;DHT22;9099;47.958;11.366;2023-02-17T08:19:53;12.30;99.90
17948;DHT22;9099;47.958;11.366;2023-02-17T08:22:20;12.30;99.90
17948;DHT22;9099;47.958;11.366;2023-02-17T08:24:47;12.40;99.90
17948;DHT22;9099;47.958;11.366;2023-02-17T08:27:17;12.40;99.90
17948;DHT22;9099;47.958;11.366;2023-02-17T08:29:44;12.40;99.90
17948;DHT22;9099;47.958;11.366;2023-02-17T08:32:12;12.40;99.90
17948;DHT22;9099;47.958;11.366;2023-02-17T08:34:39;12.40;99.90
17948;DHT22;9099;47.958;11.366;2023-02-17T08:37:06;12.40;99.90
17948;DHT22;9099;47.958;11.366;2023-02-17T08:39:34;12.30;99.90
17948;DHT22;9099;47.958;11.366;2023-02-17T08:42:03;12.40;99.90
17948;DHT22;9099;47.958;11.366;2023-02-17T08:44:32;12.40;99.90
17948;DHT22;9099;47.958;11.366;2023-02-17T08:47:00;12.40;99.90
17948;DHT22;9099;47.958;11.366;2023-02-17T08:49:27;12.40;99.90
17948;DHT22;9099;47.958;11.366;2023-02-17T08:51:57;12.50;99.90
17948;DHT22;9099;47.958;11.366;2023-02-17T08:54:23;12.50;99.90
17948;DHT22;9099;47.958;11.366;2023-02-17T08:56:50;12.50;99.90
17948;DHT22;9099;47.958;11.366;2023-02-17T08:59:17;12.40;99.90
17948;DHT22;9099;47.958;11.366;2023-02-17T09:01:45;12.30;99.90
17948;DHT22;9099;47.958;11.366;2023-02-17T09:04:13;12.20;99.90
17948;DHT22;9099;47.958;11.366;2023-02-17T09:06:43;12.20;99.90
17948;DHT22;9099;47.958;11.366;2023-02-17T09:11:46;12.40;99.90
17948;DHT22;9099;47.958;11.366;2023-02-17T09:14:13;12.40;99.90
17948;DHT22;9099;47.958;11.366;2023-02-17T09:16:40;12.50;99.90
17948;DHT22;9099;47.958;11.366;2023-02-17T09:19:08;12.60;99.90
17948;DHT22;9099;47.958;11.366;2023-02-17T09:21:35;12.60;99.90
17948;DHT22;9099;47.958;11.366;2023-02-17T09:24:02;12.60;99.90
17948;DHT22;9099;47.958;11.366;2023-02-17T09:26:29;12.70;99.90
17948;DHT22;9099;47.958;11.366;2023-02-17T09:28:56;12.60;99.90
17948;DHT22;9099;47.958;11.366;2023-02-17T09:31:24;12.70;99.90
17948;DHT22;9099;47.958;11.366;2023-02-17T09:33:52;12.90;99.90
17948;DHT22;9099;47.958;11.366;2023-02-17T09:36:22;12.90;99.90
17948;DHT22;9099;47.958;11.366;2023-02-17T09:38:50;13.00;99.90
17948;DHT22;9099;47.958;11.366;2023-02-17T09:41:20;13.00;99.90
17948;DHT22;9099;47.958;11.366;2023-02-17T09:43:48;13.00;99.90
17948;DHT22;9099;47.958;11.366;2023-02-17T09:46:20;13.10;99.90
17948;DHT22;9099;47.958;11.366;2023-02-17T09:48:50;13.20;99.90
17948;DHT22;9099;47.958;11.366;2023-02-17T09:51:27;13.30;99.90
17948;DHT22;9099;47.958;11.366;2023-02-17T09:54:02;13.30;99.90
17948;DHT22;9099;47.958;11.366;2023-02-17T09:56:33;13.40;99.90
17948;DHT22;9099;47.958;11.366;2023-02-17T09:59:02;13.30;99.90
17948;DHT22;9099;47.958;11.366;2023-02-17T10:01:32;13.20;99.90
17948;DHT22;9099;47.958;11.366;2023-02-17T10:04:04;13.20;99.90
17948;DHT22;9099;47.958;11.366;2023-02-17T10:06:36;13.20;99.90
17948;DHT22;9099;47.958;11.366;2023-02-17T10:09:09;13.20;99.90
17948;DHT22;9099;47.958;11.366;2023-02-17T10:11:41;13.30;99.90
17948;DHT22;9099;47.958;11.366;2023-02-17T10:14:14;13.30;99.90
17948;DHT22;9099;47.958;11.366;2023-02-17T10:16:48;13.20;99.90
17948;DHT22;9099;47.958;11.366;2023-02-17T10:19:18;13.30;99.90
17948;DHT22;9099;47.958;11.366;2023-02-17T10:21:54;13.30;99.90
17948;DHT22;9099;47.958;11.366;2023-02-17T10:24:23;13.20;99.90
17948;DHT22;9099;47.958;11.366;2023-02-17T10:27:05;13.20;99.90
17948;DHT22;9099;47.958;11.366;2023-02-17T10:29:44;13.30;99.90
17948;DHT22;9099;47.958;11.366;2023-02-17T10:32:20;13.30;99.90
17948;DHT22;9099;47.958;11.366;2023-02-17T10:35:01;13.30;99.90
17948;DHT22;9099;47.958;11.366;2023-02-17T10:37:34;13.20;99.90
17948;DHT22;9099;47.958;11.366;2023-02-17T10:40:11;13.20;99.90
17948;DHT22;9099;47.958;11.366;2023-02-17T10:42:40;13.10;99.90
17948;DHT22;9099;47.958;11.366;2023-02-17T10:45:10;13.10;99.90
17948;DHT22;9099;47.958;11.366;2023-02-17T10:47:39;13.10;99.90
17948;DHT22;9099;47.958;11.366;2023-02-17T10:50:16;13.20;99.90
17948;DHT22;9099;47.958;11.366;2023-02-17T10:52:45;13.40;99.90
17948;DHT22;9099;47.958;11.366;2023-02-17T10:55:19;13.50;99.90
17948;DHT22;9099;47.958;11.366;2023-02-17T10:57:49;13.60;99.90
17948;DHT22;9099;47.958;11.366;2023-02-17T11:00:18;13.60;99.90
17948;DHT22;9099;47.958;11.366;2023-02-17T11:02:46;13.50;99.90
17948;DHT22;9099;47.958;11.366;2023-02-17T11:05:24;13.60;99.90
17948;DHT22;9099;47.958;11.366;2023-02-17T11:07:56;13.70;99.90
17948;DHT22;9099;47.958;11.366;2023-02-17T11:10:27;13.80;99.90
17948;DHT22;9099;47.958;11.366;2023-02-17T11:12:55;14.10;99.90
17948;DHT22;9099;47.958;11.366;2023-02-17T11:15:26;14.60;99.90
17948;DHT22;9099;47.958;11.366;2023-02-17T11:17:53;14.90;99.90
17948;DHT22;9099;47.958;11.366;2023-02-17T11:20:30;15.00;99.90
17948;DHT22;9099;47.958;11.366;2023-02-17T11:23:06;15.50;99.90
17948;DHT22;9099;47.958;11.366;2023-02-17T11:25:35;16.20;99.90
17948;DHT22;9099;47.958;11.366;2023-02-17T11:28:05;16.40;99.90
17948;DHT22;9099;47.958;11.366;2023-02-17T11:30:34;16.20;99.90
17948;DHT22;9099;47.958;11.366;2023-02-17T11:33:12;16.00;99.90
17948;DHT22;9099;47.958;11.366;2023-02-17T11:35:47;15.90;99.90
17948;DHT22;9099;47.958;11.366;2023-02-17T11:38:17;15.70;99.90
17948;DHT22;9099;47.958;11.366;2023-02-17T11:40:52;15.70;99.90
17948;DHT22;9099;47.958;11.366;2023-02-17T11:43:20;15.40;99.90
17948;DHT22;9099;47.958;11.366;2023-02-17T11:45:54;15.30;99.90
17948;DHT22;9099;47.958;11.366;2023-02-17T11:51:33;14.70;99.90
17948;DHT22;9099;47.958;11.366;2023-02-17T11:54:13;14.60;99.90
17948;DHT22;9099;47.958;11.366;2023-02-17T11:56:45;14.40;99.90
17948;DHT22;9099;47.958;11.366;2023-02-17T11:59:22;14.40;99.90
17948;DHT22;9099;47.958;11.366;2023-02-17T12:02:13;14.50;99.90
17948;DHT22;9099;47.958;11.366;2023-02-17T12:04:49;14.50;99.90
17948;DHT22;9099;47.958;11.366;2023-02-17T12:07:30;14.40;99.90
17948;DHT22;9099;47.958;11.366;2023-02-17T12:10:05;14.50;99.90
17948;DHT22;9099;47.958;11.366;2023-02-17T12:12:53;14.50;99.90
17948;DHT22;9099;47.958;11.366;2023-02-17T12:15:32;14.50;99.90
17948;DHT22;9099;47.958;11.366;2023-02-17T12:18:07;14.40;99.90
17948;DHT22;9099;47.958;11.366;2023-02-17T12:20:46;14.30;99.90
17948;DHT22;9099;47.958;11.366;2023-02-17T12:23:30;14.20;99.90
17948;DHT22;9099;47.958;11.366;2023-02-17T12:26:06;14.10;99.90
17948;DHT22;9099;47.958;11.366;2023-02-17T12:28:58;14.30;99.90
17948;DHT22;9099;47.958;11.366;2023-02-17T12:31:46;14.60;99.90
17948;DHT22;9099;47.958;11.366;2023-02-17T12:34:20;14.90;99.90
17948;DHT22;9099;47.958;11.366;2023-02-17T12:36:49;15.00;99.90
17948;DHT22;9099;47.958;11.366;2023-02-17T12:39:21;14.90;99.90
17948;DHT22;9099;47.958;11.366;2023-02-17T12:41:53;14.80;99.90
17948;DHT22;9099;47.958;11.366;2023-02-17T12:44:24;14.70;99.90
17948;DHT22;9099;47.958;11.366;2023-02-17T12:46:52;14.60;99.90
17948;DHT22;9099;47.958;11.366;2023-02-17T12:49:26;14.50;99.90
17948;DHT22;9099;47.958;11.366;2023-02-17T12:51:58;14.50;99.90
17948;DHT22;9099;47.958;11.366;2023-02-17T12:54:32;14.50;99.90
17948;DHT22;9099;47.958;11.366;2023-02-17T12:57:09;14.60;99.90
17948;DHT22;9099;47.958;11.366;2023-02-17T12:59:40;14.70;99.90
17948;DHT22;9099;47.958;11.366;2023-02-17T13:02:11;14.90;99.90
17948;DHT22;9099;47.958;11.366;2023-02-17T13:04:40;14.90;99.90
17948;DHT22;9099;47.958;11.366;2023-02-17T13:07:32;14.90;99.90
17948;DHT22;9099;47.958;11.366;2023-02-17T13:10:02;15.00;99.90
17948;DHT22;9099;47.958;11.366;2023-02-17T13:12:35;15.00;99.90
17948;DHT22;9099;47.958;11.366;2023-02-17T13:15:23;15.00;99.90
17948;DHT22;9099;47.958;11.366;2023-02-17T13:17:54;14.90;99.90
17948;DHT22;9099;47.958;11.366;2023-02-17T13:23:30;14.60;99.90
17948;DHT22;9099;47.958;11.366;2023-02-17T13:26:30;14.50;99.90
17948;DHT22;9099;47.958;11.366;2023-02-17T13:29:20;14.50;99.90
17948;DHT22;9099;47.958;11.366;2023-02-17T13:31:59;14.50;99.90
17948;DHT22;9099;47.958;11.366;2023-02-17T13:34:30;14.40;99.90
17948;DHT22;9099;47.958;11.366;2023-02-17T13:36:59;14.20;99.90
17948;DHT22;9099;47.958;11.366;2023-02-17T13:39:34;14.20;99.90
17948;DHT22;9099;47.958;11.366;2023-02-17T13:42:01;14.20;99.90
17948;DHT22;9099;47.958;11.366;2023-02-17T13:44:31;14.40;99.90
17948;DHT22;9099;47.958;11.366;2023-02-17T13:47:01;14.90;99.90
17948;DHT22;9099;47.958;11.366;2023-02-17T13:49:31;14.90;99.90
17948;DHT22;9099;47.958;11.366;2023-02-17T13:52:14;14.90;99.90
17948;DHT22;9099;47.958;11.366;2023-02-17T13:54:51;14.70;99.90
17948;DHT22;9099;47.958;11.366;2023-02-17T13:57:25;14.50;99.90
17948;DHT22;9099;47.958;11.366;2023-02-17T14:00:04;14.40;99.90
17948;DHT22;9099;47.958;11.366;2023-02-17T14:02:31;14.30;99.90
17948;DHT22;9099;47.958;11.366;2023-02-17T14:04:59;14.30;99.90
17948;DHT22;9099;47.958;11.366;2023-02-17T14:07:33;14.30;99.90
17948;DHT22;9099;47.958;11.366;2023-02-17T14:10:00;14.20;99.90
17948;DHT22;9099;47.958;11.366;2023-02-17T14:12:27;14.20;99.90
17948;DHT22;9099;47.958;11.366;2023-02-17T14:14:55;14.10;99.90
17948;DHT22;9099;47.958;11.366;2023-02-17T14:17:27;14.30;99.90
17948;DHT22;9099;47.958;11.366;2023-02-17T14:19:55;14.30;99.90
17948;DHT22;9099;47.958;11.366;2023-02-17T14:22:24;14.10;99.90
17948;DHT22;9099;47.958;11.366;2023-02-17T14:25:00;14.00;99.90
17948;DHT22;9099;47.958;11.366;2023-02-17T14:27:28;14.00;99.90
17948;DHT22;9099;47.958;11.366;2023-02-17T14:30:13;13.90;99.90
17948;DHT22;9099;47.958;11.366;2023-02-17T14:32:40;13.80;99.90
17948;DHT22;9099;47.958;11.366;2023-02-17T14:35:18;13.70;99.90
17948;DHT22;9099;47.958;11.366;2023-02-17T14:37:46;13.70;99.90
17948;DHT22;9099;47.958;11.366;2023-02-17T14:40:15;13.60;99.90
17948;DHT22;9099;47.958;11.366;2023-02-17T14:42:43;13.60;99.90
17948;DHT22;9099;47.958;11.366;2023-02-17T14:45:12;13.50;99.90
17948;DHT22;9099;47.958;11.366;2023-02-17T14:47:39;13.50;99.90
17948;DHT22;9099;47.958;11.366;2023-02-17T14:50:07;13.50;99.90
17948;DHT22;9099;47.958;11.366;2023-02-17T14:52:38;13.40;99.90
17948;DHT22;9099;47.958;11.366;2023-02-17T14:55:12;13.40;99.90
17948;DHT22;9099;47.958;11.366;2023-02-17T14:57:41;13.40;99.90
17948;DHT22;9099;47.958;11.366;2023-02-17T15:00:13;13.40;99.90
17948;DHT22;9099;47.958;11.366;2023-02-17T15:02:40;13.50;99.90
17948;DHT22;9099;47.958;11.366;2023-02-17T15:05:07;13.40;99.90
17948;DHT22;9099;47.958;11.366;2023-02-17T15:07:34;13.30;99.90
17948;DHT22;9099;47.958;11.366;2023-02-17T15:10:01;13.40;99.90
17948;DHT22;9099;47.958;11.366;2023-02-17T15:12:28;13.30;99.90
17948;DHT22;9099;47.958;11.366;2023-02-17T15:14:55;13.30;99.90
17948;DHT22;9099;47.958;11.366;2023-02-17T15:17:23;13.30;99.90
17948;DHT22;9099;47.958;11.366;2023-02-17T15:19:50;13.30;99.90
17948;DHT22;9099;47.958;11.366;2023-02-17T15:22:17;13.30;99.90
17948;DHT22;9099;47.958;11.366;2023-02-17T15:24:44;13.30;99.90
17948;DHT22;9099;47.958;11.366;2023-02-17T15:27:13;13.20;99.90
17948;DHT22;9099;47.958;11.366;2023-02-17T15:29:41;13.20;99.90
17948;DHT22;9099;47.958;11.366;2023-02-17T15:32:13;13.20;99.90
17948;DHT22;9099;47.958;11.366;2023-02-17T15:34:44;13.20;99.90
17948;DHT22;9099;47.958;11.366;2023-02-17T15:37:11;13.20;99.90
17948;DHT22;9099;47.958;11.366;2023-02-17T15:39:38;13.10;99.90
17948;DHT22;9099;47.958;11.366;2023-02-17T15:42:10;13.20;99.90
17948;DHT22;9099;47.958;11.366;2023-02-17T15:44:41;13.20;99.90
17948;DHT22;9099;47.958;11.366;2023-02-17T15:47:12;13.20;99.90
17948;DHT22;9099;47.958;11.366;2023-02-17T15:49:39;13.20;99.90
17948;DHT22;9099;47.958;11.366;2023-02-17T15:52:10;13.10;99.90
17948;DHT22;9099;47.958;11.366;2023-02-17T15:54:38;13.10;99.90
17948;DHT22;9099;47.958;11.366;2023-02-17T15:57:05;13.10;99.90
17948;DHT22;9099;47.958;11.366;2023-02-17T15:59:34;13.10;99.90
17948;DHT22;9099;47.958;11.366;2023-02-17T16:02:07;13.10;99.90
17948;DHT22;9099;47.958;11.366;2023-02-17T16:04:37;13.00;99.90